createdAt,value
2019-04-22T00:01:16.419Z,12.10
2019-04-22T00:03:47.481Z,11.33
2019-04-22T00:06:30.964Z,10.80
2019-04-22T00:09:11.195Z,10.58
2019-04-22T00:11:36.969Z,11.20
2019-04-22T00:14:20.429Z,10.98
2019-04-22T00:16:48.762Z,10.67
2019-04-22T00:19:15.341Z,11.00
2019-04-22T00:21:40.438Z,12.00
2019-04-22T00:24:12.102Z,11.55
2019-04-22T00:26:48.452Z,11.75
2019-04-22T00:29:34.300Z,15.50
2019-04-22T00:31:58.994Z,11.48
2019-04-22T00:34:35.955Z,10.13
2019-04-22T00:37:13.367Z,10.48
2019-04-22T00:39:42.658Z,11.00
2019-04-22T00:42:08.108Z,10.98
2019-04-22T00:47:21.234Z,10.18
2019-04-22T00:54:49.590Z,10.97
2019-04-22T00:57:15.630Z,10.98
2019-04-22T00:59:45.798Z,10.18
2019-04-22T01:02:16.450Z,10.75
2019-04-22T01:04:49.033Z,10.80
2019-04-22T01:07:17.719Z,10.53
2019-04-22T01:09:52.159Z,11.55
2019-04-22T01:12:24.479Z,10.23
2019-04-22T01:15:07.497Z,10.95
2019-04-22T01:17:40.270Z,10.63
2019-04-22T01:20:25.827Z,10.80
2019-04-22T01:22:42.430Z,11.03
2019-04-22T01:25:08.827Z,10.72
2019-04-22T01:27:37.832Z,10.53
2019-04-22T01:30:06.645Z,10.65
2019-04-22T01:32:31.072Z,12.20
2019-04-22T01:35:09.817Z,10.68
2019-04-22T01:37:46.008Z,10.87
2019-04-22T01:40:24.115Z,11.55
2019-04-22T01:42:56.000Z,10.55
2019-04-22T01:45:26.453Z,10.63
2019-04-22T01:47:49.246Z,10.50
2019-04-22T01:50:26.512Z,9.75
2019-04-22T01:53:02.049Z,9.95
2019-04-22T01:57:53.923Z,10.85
2019-04-22T02:00:32.493Z,9.53
2019-04-22T02:02:59.687Z,10.18
2019-04-22T02:05:28.654Z,11.33
2019-04-22T02:08:11.263Z,9.58
2019-04-22T02:10:35.996Z,10.72
2019-04-22T02:13:01.509Z,11.15
2019-04-22T02:15:36.289Z,11.30
2019-04-22T02:18:12.018Z,10.32
2019-04-22T02:20:37.600Z,9.78
2019-04-22T02:23:47.310Z,9.55
2019-04-22T02:26:09.434Z,10.03
2019-04-22T02:31:29.278Z,9.38
2019-04-22T02:36:19.311Z,10.33
2019-04-22T02:44:02.079Z,10.40
2019-04-22T02:46:40.737Z,11.00
2019-04-22T02:49:04.103Z,11.43
2019-04-22T02:56:27.616Z,10.15
2019-04-22T03:09:01.238Z,11.30
2019-04-22T03:11:26.934Z,10.80
2019-04-22T03:19:05.872Z,11.43
2019-04-22T03:21:23.907Z,11.00
2019-04-22T03:26:32.025Z,10.75
2019-04-22T03:28:58.693Z,11.78
2019-04-22T03:39:37.689Z,13.13
2019-04-22T03:47:19.407Z,10.48
2019-04-22T03:57:33.460Z,9.90
2019-04-22T03:59:46.011Z,10.50
2019-04-22T04:04:36.857Z,9.35
2019-04-22T04:07:20.162Z,11.20
2019-04-22T04:12:20.729Z,11.45
2019-04-22T04:14:50.842Z,10.98
2019-04-22T04:19:43.771Z,9.98
2019-04-22T04:22:27.004Z,11.20
2019-04-22T04:24:53.931Z,10.63
2019-04-22T04:27:43.152Z,11.15
2019-04-22T04:29:54.746Z,10.10
2019-04-22T04:32:28.863Z,11.45
2019-04-22T04:37:33.111Z,11.05
2019-04-22T04:39:55.129Z,11.68
2019-04-22T04:47:32.127Z,10.45
2019-04-22T04:49:52.906Z,10.77
2019-04-22T04:52:27.709Z,10.80
2019-04-22T04:57:31.180Z,10.60
2019-04-22T05:00:35.095Z,10.93
2019-04-22T05:05:08.343Z,12.30
2019-04-22T05:09:55.093Z,10.95
2019-04-22T05:12:34.057Z,10.97
2019-04-22T05:14:59.903Z,11.28
2019-04-22T05:17:25.677Z,11.68
2019-04-22T05:19:56.856Z,11.45
2019-04-22T05:22:24.350Z,10.93
2019-04-22T05:24:53.714Z,12.88
2019-04-22T05:27:32.202Z,11.97
2019-04-22T05:30:08.811Z,11.50
2019-04-22T05:32:24.623Z,11.45
2019-04-22T05:34:52.807Z,12.30
2019-04-22T05:37:30.988Z,10.13
2019-04-22T05:39:49.616Z,11.43
2019-04-22T05:42:39.460Z,10.32
2019-04-22T05:44:55.000Z,10.48
2019-04-22T05:47:26.162Z,9.63
2019-04-22T05:49:54.575Z,10.98
2019-04-22T05:52:24.934Z,10.82
2019-04-22T05:55:02.974Z,11.00
2019-04-22T05:57:45.664Z,10.63
2019-04-22T06:00:06.379Z,10.15
2019-04-22T06:05:07.051Z,11.20
2019-04-22T06:07:36.879Z,10.40
2019-04-22T06:10:15.833Z,10.88
2019-04-22T06:12:35.704Z,11.90
2019-04-22T06:15:23.342Z,10.75
2019-04-22T06:17:49.295Z,10.98
2019-04-22T06:20:09.444Z,9.78
2019-04-22T06:25:23.063Z,10.43
2019-04-22T06:27:52.381Z,11.28
2019-04-22T06:30:23.292Z,8.98
2019-04-22T06:32:46.877Z,11.55
2019-04-22T06:35:33.782Z,11.35
2019-04-22T06:38:14.550Z,10.10
2019-04-22T06:40:24.821Z,11.20
2019-04-22T06:45:23.452Z,10.60
2019-04-22T06:48:01.993Z,10.45
2019-04-22T06:50:27.749Z,9.20
2019-04-22T06:52:54.560Z,10.63
2019-04-22T06:55:29.832Z,10.25
2019-04-22T06:57:51.144Z,10.00
2019-04-22T07:00:24.624Z,9.50
2019-04-22T07:03:19.993Z,11.18
2019-04-22T07:05:27.587Z,9.65
2019-04-22T07:08:05.547Z,8.65
2019-04-22T07:12:58.688Z,9.48
2019-04-22T07:15:42.411Z,9.28
2019-04-22T07:18:03.070Z,10.10
2019-04-22T07:20:30.518Z,8.53
2019-04-22T07:23:01.937Z,9.43
2019-04-22T07:25:31.855Z,7.90
2019-04-22T07:28:02.058Z,10.93
2019-04-22T07:30:35.014Z,9.40
2019-04-22T07:33:24.799Z,10.10
2019-04-22T07:35:36.273Z,8.77
2019-04-22T07:38:10.808Z,8.55
2019-04-22T07:40:38.944Z,8.45
2019-04-22T07:43:14.931Z,9.80
2019-04-22T07:45:47.838Z,8.65
2019-04-22T07:48:21.902Z,9.55
2019-04-22T07:50:50.648Z,7.90
2019-04-22T07:53:14.338Z,9.37
2019-04-22T07:55:40.264Z,8.33
2019-04-22T07:58:11.895Z,8.70
2019-04-22T08:03:19.074Z,9.08
2019-04-22T08:05:52.239Z,9.25
2019-04-22T08:08:23.092Z,8.85
2019-04-22T08:10:48.468Z,9.25
2019-04-22T08:13:19.669Z,9.30
2019-04-22T08:18:19.358Z,7.55
2019-04-22T08:20:47.162Z,8.67
2019-04-22T08:23:24.520Z,9.15
2019-04-22T08:25:49.520Z,8.23
2019-04-22T08:28:28.901Z,10.25
2019-04-22T08:30:55.075Z,8.55
2019-04-22T08:33:29.390Z,9.55
2019-04-22T08:36:06.883Z,7.50
2019-04-22T08:38:36.784Z,8.60
2019-04-22T08:44:01.245Z,8.48
2019-04-22T08:46:23.617Z,6.67
2019-04-22T08:48:51.608Z,7.58
2019-04-22T08:51:21.030Z,7.08
2019-04-22T08:53:57.238Z,8.15
2019-04-22T08:56:29.352Z,7.90
2019-04-22T08:58:56.990Z,8.90
2019-04-22T09:01:23.860Z,7.13
2019-04-22T09:03:52.440Z,9.08
2019-04-22T09:06:39.232Z,7.80
2019-04-22T09:08:54.063Z,6.58
2019-04-22T09:11:26.978Z,6.87
2019-04-22T09:13:58.678Z,9.15
2019-04-22T09:16:33.321Z,7.65
2019-04-22T09:21:38.963Z,6.65
2019-04-22T09:23:58.396Z,7.00
2019-04-22T09:26:30.597Z,6.80
2019-04-22T09:28:59.502Z,6.25
2019-04-22T09:31:28.984Z,6.42
2019-04-22T09:33:53.706Z,8.03
2019-04-22T09:39:00.646Z,7.95
2019-04-22T09:41:33.339Z,6.87
2019-04-22T09:46:34.541Z,7.53
2019-04-22T09:49:06.874Z,7.78
2019-04-22T09:51:31.136Z,6.13
2019-04-22T09:54:20.186Z,5.80
2019-04-22T09:56:37.485Z,6.67
2019-04-22T09:59:05.604Z,7.22
2019-04-22T10:01:38.447Z,7.47
2019-04-22T10:04:06.955Z,7.25
2019-04-22T10:06:45.671Z,6.60
2019-04-22T10:11:39.157Z,6.20
2019-04-22T10:14:28.437Z,6.35
2019-04-22T10:16:43.550Z,6.58
2019-04-22T10:19:12.351Z,7.03
2019-04-22T10:21:44.684Z,8.45
2019-04-22T10:24:11.383Z,6.72
2019-04-22T10:31:44.357Z,6.33
2019-04-22T10:34:05.827Z,7.72
2019-04-22T10:36:21.354Z,6.50
2019-04-22T10:38:50.703Z,5.95
2019-04-22T10:41:20.699Z,5.43
2019-04-22T10:43:50.935Z,7.45
2019-04-22T10:46:20.014Z,6.65
2019-04-22T10:48:50.039Z,6.37
2019-04-22T10:51:19.152Z,5.12
2019-04-22T10:53:49.223Z,5.42
2019-04-22T10:56:18.893Z,4.92
2019-04-22T10:58:48.950Z,7.05
2019-04-22T11:01:17.957Z,5.55
2019-04-22T11:03:46.738Z,8.53
2019-04-22T11:06:17.156Z,4.92
2019-04-22T11:08:52.434Z,5.47
2019-04-22T11:11:37.548Z,5.45
2019-04-22T11:13:56.041Z,7.30
2019-04-22T11:16:25.729Z,5.45
2019-04-22T11:18:55.864Z,5.28
2019-04-22T11:21:25.427Z,4.90
2019-04-22T11:23:54.618Z,5.45
2019-04-22T11:26:24.063Z,5.20
2019-04-22T11:28:53.950Z,5.20
2019-04-22T11:31:24.155Z,5.60
2019-04-22T11:33:54.452Z,5.17
2019-04-22T11:36:26.855Z,4.40
2019-04-22T11:39:00.148Z,5.30
2019-04-22T11:41:25.617Z,5.15
2019-04-22T11:43:54.494Z,5.87
2019-04-22T11:46:25.319Z,5.07
2019-04-22T11:48:54.347Z,5.20
2019-04-22T11:51:24.352Z,5.78
2019-04-22T11:53:54.569Z,4.40
2019-04-22T11:56:25.059Z,4.55
2019-04-22T11:58:55.151Z,5.50
2019-04-22T12:01:39.306Z,5.65
2019-04-22T12:04:09.698Z,4.08
2019-04-22T12:06:39.938Z,5.43
2019-04-22T12:09:12.495Z,4.47
2019-04-22T12:11:41.512Z,3.30
2019-04-22T12:14:11.697Z,5.00
2019-04-22T12:16:41.386Z,3.50
2019-04-22T12:19:11.413Z,3.70
2019-04-22T12:21:41.574Z,4.53
2019-04-22T12:24:10.954Z,4.75
2019-04-22T12:26:40.125Z,5.42
2019-04-22T12:29:09.150Z,3.40
2019-04-22T12:31:38.017Z,6.00
2019-04-22T12:34:07.908Z,5.10
2019-04-22T12:36:38.298Z,3.55
2019-04-22T12:39:09.490Z,3.87
2019-04-22T12:41:40.055Z,4.70
2019-04-22T12:44:09.422Z,3.77
2019-04-22T12:46:38.457Z,3.67
2019-04-22T12:49:08.020Z,3.87
2019-04-22T12:51:37.042Z,6.00
2019-04-22T12:54:06.881Z,3.62
2019-04-22T12:56:35.847Z,4.30
2019-04-22T12:59:05.733Z,3.75
2019-04-22T13:01:35.117Z,3.47
2019-04-22T13:04:09.396Z,3.30
2019-04-22T13:06:35.579Z,4.75
2019-04-22T13:09:08.496Z,3.12
2019-04-22T13:11:38.883Z,3.55
2019-04-22T13:14:08.975Z,4.12
2019-04-22T13:16:38.777Z,4.42
2019-04-22T13:19:12.826Z,4.00
2019-04-22T13:21:38.476Z,3.33
2019-04-22T13:24:08.930Z,3.17
2019-04-22T13:26:38.149Z,4.03
2019-04-22T13:29:07.440Z,3.27
2019-04-22T13:31:37.021Z,3.67
2019-04-22T13:34:10.529Z,6.12
2019-04-22T13:36:40.027Z,4.15
2019-04-22T13:39:09.052Z,4.35
2019-04-22T13:41:46.375Z,4.58
2019-04-22T13:44:09.126Z,3.60
2019-04-22T13:46:38.784Z,3.70
2019-04-22T13:49:42.902Z,2.65
2019-04-22T13:52:15.558Z,4.50
2019-04-22T13:56:59.710Z,4.83
2019-04-22T13:59:24.658Z,3.73
2019-04-22T14:02:01.306Z,3.87
2019-04-22T14:04:34.690Z,4.10
2019-04-22T14:07:05.012Z,4.30
2019-04-22T14:09:34.007Z,7.00
2019-04-22T14:12:05.681Z,5.03
2019-04-22T14:14:33.835Z,4.20
2019-04-22T14:17:03.020Z,3.57
2019-04-22T14:19:32.321Z,3.65
2019-04-22T14:22:01.990Z,2.62
2019-04-22T14:24:30.980Z,4.57
2019-04-22T14:27:17.863Z,4.35
2019-04-22T14:29:31.414Z,3.05
2019-04-22T14:32:08.647Z,3.20
2019-04-22T14:34:32.123Z,5.08
2019-04-22T14:37:01.520Z,3.70
2019-04-22T14:39:30.477Z,3.35
2019-04-22T14:42:20.397Z,4.53
2019-04-22T14:47:26.563Z,5.37
2019-04-22T14:49:58.056Z,3.60
2019-04-22T14:52:27.698Z,4.53
2019-04-22T14:54:48.425Z,3.85
2019-04-22T14:57:05.244Z,4.08
2019-04-22T14:59:35.525Z,3.52
2019-04-22T15:02:05.694Z,3.37
2019-04-22T15:04:35.068Z,3.83
2019-04-22T15:07:05.186Z,2.67
2019-04-22T15:09:34.248Z,4.70
2019-04-22T15:12:14.746Z,5.12
2019-04-22T15:14:35.410Z,3.98
2019-04-22T15:17:31.211Z,5.67
2019-04-22T15:20:09.862Z,3.08
2019-04-22T15:22:38.962Z,3.00
2019-04-22T15:25:08.464Z,4.08
2019-04-22T15:27:37.462Z,3.80
2019-04-22T15:30:07.601Z,3.15
2019-04-22T15:32:36.602Z,4.95
2019-04-22T15:35:07.098Z,3.60
2019-04-22T15:37:37.270Z,3.27
2019-04-22T15:40:06.875Z,3.42
2019-04-22T15:42:40.231Z,5.53
2019-04-22T15:45:08.649Z,4.03
2019-04-22T15:47:37.848Z,3.63
2019-04-22T15:50:08.067Z,3.35
2019-04-22T15:52:43.896Z,4.53
2019-04-22T15:55:09.039Z,3.77
2019-04-22T15:57:39.717Z,2.92
2019-04-22T16:00:21.373Z,5.85
2019-04-22T16:02:41.316Z,4.33
2019-04-22T16:05:10.616Z,4.83
2019-04-22T16:07:40.016Z,3.08
2019-04-22T16:10:10.094Z,4.60
2019-04-22T16:12:49.174Z,4.97
2019-04-22T16:15:12.769Z,4.33
2019-04-22T16:17:40.810Z,3.60
2019-04-22T16:20:11.043Z,4.65
2019-04-22T16:22:59.195Z,4.03
2019-04-22T16:26:01.050Z,4.10
2019-04-22T16:28:31.266Z,3.55
2019-04-22T16:31:01.453Z,4.17
2019-04-22T16:33:31.203Z,3.23
2019-04-22T16:36:00.647Z,4.70
2019-04-22T16:38:30.902Z,7.75
2019-04-22T16:41:00.994Z,4.22
2019-04-22T16:43:30.857Z,3.57
2019-04-22T16:46:01.382Z,4.58
2019-04-22T16:48:31.500Z,3.80
2019-04-22T16:51:02.213Z,3.92
2019-04-22T16:53:31.471Z,3.17
2019-04-22T16:56:00.475Z,3.20
2019-04-22T16:58:30.509Z,3.50
2019-04-22T17:01:00.705Z,3.87
2019-04-22T17:03:48.559Z,4.05
2019-04-22T17:06:21.578Z,3.37
2019-04-22T17:08:50.939Z,3.80
2019-04-22T17:11:20.194Z,4.37
2019-04-22T17:13:50.178Z,4.37
2019-04-22T17:16:20.193Z,3.98
2019-04-22T17:18:50.090Z,4.87
2019-04-22T17:21:19.584Z,3.47
2019-04-22T17:23:49.895Z,3.42
2019-04-22T17:26:18.995Z,3.70
2019-04-22T17:28:49.224Z,4.22
2019-04-22T17:31:18.663Z,4.37
2019-04-22T17:33:48.828Z,3.72
2019-04-22T17:36:18.343Z,4.25
2019-04-22T17:38:56.282Z,4.87
2019-04-22T17:41:33.996Z,3.33
2019-04-22T17:44:13.560Z,7.42
2019-04-22T17:46:51.023Z,7.83
2019-04-22T17:49:45.633Z,3.72
2019-04-22T17:52:31.101Z,3.58
2019-04-22T17:54:48.212Z,3.95
2019-04-22T17:57:22.391Z,4.60
2019-04-22T17:59:51.889Z,4.62
2019-04-22T18:02:15.356Z,4.60
2019-04-22T18:04:40.062Z,4.30
2019-04-22T18:07:32.453Z,4.35
2019-04-22T18:12:35.499Z,7.40
2019-04-22T18:14:59.534Z,3.52
2019-04-22T18:17:32.046Z,3.03
2019-04-22T18:19:53.226Z,5.00
2019-04-22T18:22:21.669Z,4.17
2019-04-22T18:24:54.149Z,4.40
2019-04-22T18:27:41.535Z,5.60
2019-04-22T18:29:57.137Z,5.53
2019-04-22T18:32:20.505Z,4.58
2019-04-22T18:34:51.569Z,3.43
2019-04-22T18:37:24.889Z,5.08
2019-04-22T18:40:01.928Z,4.65
2019-04-22T18:42:26.798Z,3.72
2019-04-22T18:45:20.289Z,4.92
2019-04-22T18:47:29.609Z,4.97
2019-04-22T18:49:59.466Z,5.17
2019-04-22T18:53:05.156Z,3.85
2019-04-22T18:55:36.579Z,4.87
2019-04-22T18:58:06.688Z,4.10
2019-04-22T19:00:25.452Z,4.55
2019-04-22T19:03:03.037Z,4.65
2019-04-22T19:05:40.414Z,4.58
2019-04-22T19:08:26.403Z,4.17
2019-04-22T19:16:19.341Z,5.40
2019-04-22T19:18:31.901Z,3.33
2019-04-22T19:20:59.443Z,3.77
2019-04-22T19:23:24.267Z,5.83
2019-04-22T19:25:48.580Z,4.92
2019-04-22T19:28:29.417Z,6.70
2019-04-22T19:30:56.318Z,6.42
2019-04-22T19:33:28.747Z,6.42
2019-04-22T19:35:49.156Z,5.78
2019-04-22T19:38:16.804Z,6.20
2019-04-22T19:43:31.044Z,6.47
2019-04-22T19:45:58.962Z,6.58
2019-04-22T19:51:05.421Z,7.28
2019-04-22T19:53:35.106Z,6.58
2019-04-22T19:55:53.769Z,5.80
2019-04-22T19:58:32.412Z,6.80
2019-04-22T20:01:26.987Z,6.40
2019-04-22T20:04:19.799Z,5.27
2019-04-22T20:06:42.580Z,6.28
2019-04-22T20:09:13.942Z,6.83
2019-04-22T20:11:46.528Z,6.25
2019-04-22T20:14:15.009Z,6.55
2019-04-22T20:16:37.524Z,6.62
2019-04-22T20:19:19.107Z,8.00
2019-04-22T20:21:46.566Z,6.17
2019-04-22T20:24:05.457Z,5.30
2019-04-22T20:26:50.122Z,7.37
2019-04-22T20:29:22.163Z,5.37
2019-04-22T20:31:51.284Z,6.83
2019-04-22T20:34:21.901Z,6.50
2019-04-22T20:39:10.945Z,5.72
2019-04-22T20:41:43.268Z,5.67
2019-04-22T20:44:22.611Z,5.35
2019-04-22T20:46:49.015Z,5.95
2019-04-22T20:49:27.384Z,5.83
2019-04-22T20:51:58.776Z,5.83
2019-04-22T20:54:22.801Z,6.70
2019-04-22T20:56:49.251Z,8.17
2019-04-22T20:59:24.314Z,6.47
2019-04-22T21:01:55.323Z,6.25
2019-04-22T21:04:18.211Z,5.60
2019-04-22T21:06:54.336Z,7.03
2019-04-22T21:09:28.495Z,5.83
2019-04-22T21:11:52.310Z,6.12
2019-04-22T21:14:23.475Z,7.20
2019-04-22T21:17:00.680Z,10.18
2019-04-22T21:19:38.189Z,6.33
2019-04-22T21:22:03.634Z,7.47
2019-04-22T21:24:32.739Z,8.48
2019-04-22T21:27:09.198Z,6.53
2019-04-22T21:29:26.579Z,5.47
2019-04-22T21:32:01.478Z,7.28
2019-04-22T21:34:40.675Z,6.47
2019-04-22T21:37:09.951Z,7.10
2019-04-22T21:39:33.259Z,7.67
2019-04-22T21:42:06.292Z,6.75
2019-04-22T21:44:33.903Z,7.87
2019-04-22T21:47:16.009Z,6.13
2019-04-22T21:49:45.949Z,7.92
2019-04-22T21:52:11.645Z,6.92
2019-04-22T21:54:47.152Z,6.17
2019-04-22T21:57:27.860Z,7.83
2019-04-22T22:00:09.747Z,8.18
2019-04-22T22:02:35.698Z,7.40
2019-04-22T22:04:58.702Z,8.48
2019-04-22T22:07:17.217Z,8.73
2019-04-22T22:10:01.993Z,7.67
2019-04-22T22:12:39.422Z,6.40
2019-04-22T22:15:04.160Z,7.28
2019-04-22T22:17:30.762Z,7.23
2019-04-22T22:20:03.555Z,10.03
2019-04-22T22:22:50.398Z,7.60
2019-04-22T22:25:10.519Z,9.25
2019-04-22T22:27:39.331Z,7.92
2019-04-22T22:32:42.272Z,8.65
2019-04-22T22:35:12.028Z,11.08
2019-04-22T22:37:28.224Z,7.30
2019-04-22T22:39:58.035Z,8.35
2019-04-22T22:42:27.197Z,8.70
2019-04-22T22:45:03.988Z,8.73
2019-04-22T22:47:39.331Z,8.25
2019-04-22T22:50:09.029Z,9.50
2019-04-22T22:55:10.921Z,8.40
2019-04-22T22:57:44.545Z,8.93
2019-04-22T23:00:13.831Z,9.78
2019-04-22T23:03:03.711Z,8.95
2019-04-22T23:05:19.963Z,9.88
2019-04-22T23:07:50.614Z,10.78
2019-04-22T23:10:18.117Z,7.80
2019-04-22T23:12:48.516Z,8.55
2019-04-22T23:15:15.357Z,9.38
2019-04-22T23:17:30.457Z,10.55
2019-04-22T23:20:00.062Z,9.58
2019-04-22T23:22:48.708Z,8.30
2019-04-22T23:25:24.740Z,9.30
2019-04-22T23:27:46.168Z,9.33
2019-04-22T23:30:35.899Z,8.95
2019-04-22T23:33:19.150Z,9.83
2019-04-22T23:35:54.865Z,8.90
2019-04-22T23:38:35.787Z,10.78
2019-04-22T23:41:06.967Z,8.58
2019-04-22T23:43:46.443Z,8.28
2019-04-22T23:46:08.387Z,11.55
2019-04-22T23:48:31.456Z,10.00
2019-04-22T23:51:13.698Z,9.98
2019-04-22T23:54:04.325Z,9.73
2019-04-22T23:56:09.214Z,9.63
2019-04-22T23:58:52.697Z,9.23
